sensor_id;sensor_type;location;lat;lon;timestamp;temperature;humidity
10344;DHT22;5217;43.960;10.954;2023-02-26T00:01:46;16.10;99.90
10344;DHT22;5217;43.960;10.954;2023-02-26T00:04:16;16.10;99.90
10344;DHT22;5217;43.960;10.954;2023-02-26T00:06:45;16.10;99.90
10344;DHT22;5217;43.960;10.954;2023-02-26T00:09:22;16.10;99.90
10344;DHT22;5217;43.960;10.954;2023-02-26T00:11:52;16.10;99.90
10344;DHT22;5217;43.960;10.954;2023-02-26T00:14:22;16.10;99.90
10344;DHT22;5217;43.960;10.954;2023-02-26T00:16:57;16.10;99.90
10344;DHT22;5217;43.960;10.954;2023-02-26T00:19:38;16.10;99.90
10344;DHT22;5217;43.960;10.954;2023-02-26T00:22:07;16.10;99.90
10344;DHT22;5217;43.960;10.954;2023-02-26T00:24:35;16.10;99.90
10344;DHT22;5217;43.960;10.954;2023-02-26T00:27:04;16.10;99.90
10344;DHT22;5217;43.960;10.954;2023-02-26T00:29:33;16.10;99.90
10344;DHT22;5217;43.960;10.954;2023-02-26T00:32:03;16.10;99.90
10344;DHT22;5217;43.960;10.954;2023-02-26T00:34:32;16.10;99.90
10344;DHT22;5217;43.960;10.954;2023-02-26T00:37:11;16.10;99.90
10344;DHT22;5217;43.960;10.954;2023-02-26T00:39:50;16.10;99.90
10344;DHT22;5217;43.960;10.954;2023-02-26T00:42:21;16.10;99.90
10344;DHT22;5217;43.960;10.954;2023-02-26T00:44:51;16.10;99.90
10344;DHT22;5217;43.960;10.954;2023-02-26T00:47:24;16.10;99.90
10344;DHT22;5217;43.960;10.954;2023-02-26T00:50:08;16.10;99.90
10344;DHT22;5217;43.960;10.954;2023-02-26T00:52:45;16.10;99.90
10344;DHT22;5217;43.960;10.954;2023-02-26T00:55:17;16.10;99.90
10344;DHT22;5217;43.960;10.954;2023-02-26T00:57:46;16.10;99.90
10344;DHT22;5217;43.960;10.954;2023-02-26T01:00:16;16.10;99.90
10344;DHT22;5217;43.960;10.954;2023-02-26T01:02:46;16.00;99.90
10344;DHT22;5217;43.960;10.954;2023-02-26T01:05:15;16.00;99.90
10344;DHT22;5217;43.960;10.954;2023-02-26T01:07:50;16.00;99.90
10344;DHT22;5217;43.960;10.954;2023-02-26T01:10:22;16.00;99.90
10344;DHT22;5217;43.960;10.954;2023-02-26T01:12:52;16.00;99.90
10344;DHT22;5217;43.960;10.954;2023-02-26T01:15:24;16.10;99.90
10344;DHT22;5217;43.960;10.954;2023-02-26T01:17:56;16.00;99.90
10344;DHT22;5217;43.960;10.954;2023-02-26T01:20:32;16.00;99.90
10344;DHT22;5217;43.960;10.954;2023-02-26T01:23:08;16.00;99.90
10344;DHT22;5217;43.960;10.954;2023-02-26T01:25:41;16.00;99.90
10344;DHT22;5217;43.960;10.954;2023-02-26T01:28:15;16.00;99.90
10344;DHT22;5217;43.960;10.954;2023-02-26T01:30:45;16.00;99.90
10344;DHT22;5217;43.960;10.954;2023-02-26T01:33:23;16.00;99.90
10344;DHT22;5217;43.960;10.954;2023-02-26T01:35:57;16.00;99.90
10344;DHT22;5217;43.960;10.954;2023-02-26T01:38:35;15.90;99.90
10344;DHT22;5217;43.960;10.954;2023-02-26T01:41:32;16.00;99.90
10344;DHT22;5217;43.960;10.954;2023-02-26T01:44:09;15.90;99.90
10344;DHT22;5217;43.960;10.954;2023-02-26T01:46:54;15.90;99.90
10344;DHT22;5217;43.960;10.954;2023-02-26T01:49:27;15.90;99.90
10344;DHT22;5217;43.960;10.954;2023-02-26T01:51:57;15.90;99.90
10344;DHT22;5217;43.960;10.954;2023-02-26T01:54:30;15.90;99.90
10344;DHT22;5217;43.960;10.954;2023-02-26T01:57:03;15.90;99.90
10344;DHT22;5217;43.960;10.954;2023-02-26T01:59:37;15.90;99.90
10344;DHT22;5217;43.960;10.954;2023-02-26T02:02:09;15.90;99.90
10344;DHT22;5217;43.960;10.954;2023-02-26T02:04:39;15.90;99.90
10344;DHT22;5217;43.960;10.954;2023-02-26T02:07:10;15.90;99.90
10344;DHT22;5217;43.960;10.954;2023-02-26T02:09:41;15.90;99.90
10344;DHT22;5217;43.960;10.954;2023-02-26T02:12:21;15.90;99.90
10344;DHT22;5217;43.960;10.954;2023-02-26T02:15:03;15.90;99.90
10344;DHT22;5217;43.960;10.954;2023-02-26T02:17:43;15.90;99.90
10344;DHT22;5217;43.960;10.954;2023-02-26T02:20:44;15.90;99.90
10344;DHT22;5217;43.960;10.954;2023-02-26T02:23:26;15.90;99.90
10344;DHT22;5217;43.960;10.954;2023-02-26T02:26:36;15.90;99.90
10344;DHT22;5217;43.960;10.954;2023-02-26T02:29:27;15.90;99.90
10344;DHT22;5217;43.960;10.954;2023-02-26T02:32:05;15.90;99.90
10344;DHT22;5217;43.960;10.954;2023-02-26T02:34:40;15.90;99.90
10344;DHT22;5217;43.960;10.954;2023-02-26T02:37:17;15.90;99.90
10344;DHT22;5217;43.960;10.954;2023-02-26T02:39:51;15.80;99.90
10344;DHT22;5217;43.960;10.954;2023-02-26T02:42:27;15.90;99.90
10344;DHT22;5217;43.960;10.954;2023-02-26T02:45:02;15.90;99.90
10344;DHT22;5217;43.960;10.954;2023-02-26T02:47:37;15.90;99.90
10344;DHT22;5217;43.960;10.954;2023-02-26T02:50:13;15.90;99.90
10344;DHT22;5217;43.960;10.954;2023-02-26T02:52:49;15.90;99.90
10344;DHT22;5217;43.960;10.954;2023-02-26T02:55:23;15.90;99.90
10344;DHT22;5217;43.960;10.954;2023-02-26T02:57:59;15.90;99.90
10344;DHT22;5217;43.960;10.954;2023-02-26T03:00:33;15.90;99.90
10344;DHT22;5217;43.960;10.954;2023-02-26T03:03:10;15.90;99.90
10344;DHT22;5217;43.960;10.954;2023-02-26T03:05:42;15.80;99.90
10344;DHT22;5217;43.960;10.954;2023-02-26T03:08:15;15.80;99.90
10344;DHT22;5217;43.960;10.954;2023-02-26T03:10:45;15.80;99.90
10344;DHT22;5217;43.960;10.954;2023-02-26T03:13:17;15.80;99.90
10344;DHT22;5217;43.960;10.954;2023-02-26T03:15:55;15.80;99.90
10344;DHT22;5217;43.960;10.954;2023-02-26T03:18:39;15.80;99.90
10344;DHT22;5217;43.960;10.954;2023-02-26T03:21:13;15.80;99.90
10344;DHT22;5217;43.960;10.954;2023-02-26T03:23:51;15.80;99.90
10344;DHT22;5217;43.960;10.954;2023-02-26T03:26:28;15.80;99.90
10344;DHT22;5217;43.960;10.954;2023-02-26T03:29:05;15.80;99.90
10344;DHT22;5217;43.960;10.954;2023-02-26T03:31:42;15.80;99.90
10344;DHT22;5217;43.960;10.954;2023-02-26T03:34:22;15.80;99.90
10344;DHT22;5217;43.960;10.954;2023-02-26T03:36:56;15.80;99.90
10344;DHT22;5217;43.960;10.954;2023-02-26T03:39:32;15.80;99.90
10344;DHT22;5217;43.960;10.954;2023-02-26T03:42:04;15.80;99.90
10344;DHT22;5217;43.960;10.954;2023-02-26T03:44:38;15.80;99.90
10344;DHT22;5217;43.960;10.954;2023-02-26T03:47:12;15.80;99.90
10344;DHT22;5217;43.960;10.954;2023-02-26T03:49:47;15.80;99.90
10344;DHT22;5217;43.960;10.954;2023-02-26T03:52:20;15.80;99.90
10344;DHT22;5217;43.960;10.954;2023-02-26T03:54:57;15.80;99.90
10344;DHT22;5217;43.960;10.954;2023-02-26T03:57:27;15.80;99.90
10344;DHT22;5217;43.960;10.954;2023-02-26T03:59:56;15.80;99.90
10344;DHT22;5217;43.960;10.954;2023-02-26T04:02:28;15.80;99.90
10344;DHT22;5217;43.960;10.954;2023-02-26T04:05:05;15.80;99.90
10344;DHT22;5217;43.960;10.954;2023-02-26T04:07:36;15.80;99.90
10344;DHT22;5217;43.960;10.954;2023-02-26T04:10:08;15.80;99.90
10344;DHT22;5217;43.960;10.954;2023-02-26T04:12:37;15.70;99.90
10344;DHT22;5217;43.960;10.954;2023-02-26T04:15:08;15.80;99.90
10344;DHT22;5217;43.960;10.954;2023-02-26T04:17:36;15.80;99.90
10344;DHT22;5217;43.960;10.954;2023-02-26T04:20:09;15.70;99.90
10344;DHT22;5217;43.960;10.954;2023-02-26T04:22:39;15.70;99.90
10344;DHT22;5217;43.960;10.954;2023-02-26T04:25:09;15.70;99.90
10344;DHT22;5217;43.960;10.954;2023-02-26T04:27:38;15.70;99.90
10344;DHT22;5217;43.960;10.954;2023-02-26T04:30:07;15.70;99.90
10344;DHT22;5217;43.960;10.954;2023-02-26T04:32:37;15.70;99.90
10344;DHT22;5217;43.960;10.954;2023-02-26T04:35:09;15.70;99.90
10344;DHT22;5217;43.960;10.954;2023-02-26T04:37:39;15.70;99.90
10344;DHT22;5217;43.960;10.954;2023-02-26T04:40:10;15.70;99.90
10344;DHT22;5217;43.960;10.954;2023-02-26T04:42:41;15.70;99.90
10344;DHT22;5217;43.960;10.954;2023-02-26T04:45:13;15.70;99.90
10344;DHT22;5217;43.960;10.954;2023-02-26T04:47:42;15.70;99.90
10344;DHT22;5217;43.960;10.954;2023-02-26T04:50:13;15.70;99.90
10344;DHT22;5217;43.960;10.954;2023-02-26T04:52:43;15.70;99.90
10344;DHT22;5217;43.960;10.954;2023-02-26T04:55:13;15.70;99.90
10344;DHT22;5217;43.960;10.954;2023-02-26T04:57:44;15.70;99.90
10344;DHT22;5217;43.960;10.954;2023-02-26T05:00:18;15.70;99.90
10344;DHT22;5217;43.960;10.954;2023-02-26T05:02:51;15.70;99.90
10344;DHT22;5217;43.960;10.954;2023-02-26T05:05:23;15.70;99.90
10344;DHT22;5217;43.960;10.954;2023-02-26T05:07:53;15.70;99.90
10344;DHT22;5217;43.960;10.954;2023-02-26T05:10:23;15.70;99.90
10344;DHT22;5217;43.960;10.954;2023-02-26T05:12:53;15.70;99.90
10344;DHT22;5217;43.960;10.954;2023-02-26T05:15:23;15.70;99.90
10344;DHT22;5217;43.960;10.954;2023-02-26T05:17:52;15.70;99.90
10344;DHT22;5217;43.960;10.954;2023-02-26T05:20:23;15.70;99.90
10344;DHT22;5217;43.960;10.954;2023-02-26T05:22:53;15.60;99.90
10344;DHT22;5217;43.960;10.954;2023-02-26T05:25:23;15.70;99.90
10344;DHT22;5217;43.960;10.954;2023-02-26T05:27:53;15.70;99.90
10344;DHT22;5217;43.960;10.954;2023-02-26T05:30:23;15.60;99.90
10344;DHT22;5217;43.960;10.954;2023-02-26T05:32:52;15.60;99.90
10344;DHT22;5217;43.960;10.954;2023-02-26T05:35:23;15.60;99.90
10344;DHT22;5217;43.960;10.954;2023-02-26T05:37:52;15.60;99.90
10344;DHT22;5217;43.960;10.954;2023-02-26T05:40:22;15.60;99.90
10344;DHT22;5217;43.960;10.954;2023-02-26T05:42:51;15.60;99.90
10344;DHT22;5217;43.960;10.954;2023-02-26T05:45:21;15.60;99.90
10344;DHT22;5217;43.960;10.954;2023-02-26T05:47:50;15.60;99.90
10344;DHT22;5217;43.960;10.954;2023-02-26T05:50:19;15.60;99.90
10344;DHT22;5217;43.960;10.954;2023-02-26T05:52:52;15.60;99.90
10344;DHT22;5217;43.960;10.954;2023-02-26T05:55:23;15.60;99.90
10344;DHT22;5217;43.960;10.954;2023-02-26T05:57:52;15.60;99.90
10344;DHT22;5217;43.960;10.954;2023-02-26T06:00:22;15.60;99.90
10344;DHT22;5217;43.960;10.954;2023-02-26T06:02:53;15.60;99.90
10344;DHT22;5217;43.960;10.954;2023-02-26T06:05:23;15.60;99.90
10344;DHT22;5217;43.960;10.954;2023-02-26T06:07:55;15.60;99.90
10344;DHT22;5217;43.960;10.954;2023-02-26T06:10:24;15.60;99.90
10344;DHT22;5217;43.960;10.954;2023-02-26T06:12:55;15.50;99.90
10344;DHT22;5217;43.960;10.954;2023-02-26T06:15:23;15.50;99.90
10344;DHT22;5217;43.960;10.954;2023-02-26T06:17:53;15.50;99.90
10344;DHT22;5217;43.960;10.954;2023-02-26T06:20:22;15.50;99.90
10344;DHT22;5217;43.960;10.954;2023-02-26T06:22:54;15.40;99.90
10344;DHT22;5217;43.960;10.954;2023-02-26T06:25:23;15.40;99.90
10344;DHT22;5217;43.960;10.954;2023-02-26T06:27:52;15.40;99.90
10344;DHT22;5217;43.960;10.954;2023-02-26T06:30:22;15.40;99.90
10344;DHT22;5217;43.960;10.954;2023-02-26T06:32:52;15.30;99.90
10344;DHT22;5217;43.960;10.954;2023-02-26T06:35:22;15.30;99.90
10344;DHT22;5217;43.960;10.954;2023-02-26T06:37:54;15.20;99.90
10344;DHT22;5217;43.960;10.954;2023-02-26T06:40:23;15.20;99.90
10344;DHT22;5217;43.960;10.954;2023-02-26T06:42:56;15.20;99.90
10344;DHT22;5217;43.960;10.954;2023-02-26T06:45:26;15.20;99.90
10344;DHT22;5217;43.960;10.954;2023-02-26T06:47:55;15.20;99.90
10344;DHT22;5217;43.960;10.954;2023-02-26T06:50:25;15.10;99.90
10344;DHT22;5217;43.960;10.954;2023-02-26T06:52:57;15.10;99.90
10344;DHT22;5217;43.960;10.954;2023-02-26T06:55:26;15.00;99.90
10344;DHT22;5217;43.960;10.954;2023-02-26T06:57:56;15.00;99.90
10344;DHT22;5217;43.960;10.954;2023-02-26T07:00:25;15.00;99.90
10344;DHT22;5217;43.960;10.954;2023-02-26T07:02:54;15.00;99.90
10344;DHT22;5217;43.960;10.954;2023-02-26T07:05:25;14.90;99.90
10344;DHT22;5217;43.960;10.954;2023-02-26T07:07:55;14.90;99.90
10344;DHT22;5217;43.960;10.954;2023-02-26T07:10:27;14.90;99.90
10344;DHT22;5217;43.960;10.954;2023-02-26T07:12:56;14.80;99.90
10344;DHT22;5217;43.960;10.954;2023-02-26T07:15:25;14.90;99.90
10344;DHT22;5217;43.960;10.954;2023-02-26T07:17:55;14.80;99.90
10344;DHT22;5217;43.960;10.954;2023-02-26T07:20:27;14.80;99.90
10344;DHT22;5217;43.960;10.954;2023-02-26T07:22:59;14.70;99.90
10344;DHT22;5217;43.960;10.954;2023-02-26T07:25:29;14.70;99.90
10344;DHT22;5217;43.960;10.954;2023-02-26T07:27:57;14.70;99.90
10344;DHT22;5217;43.960;10.954;2023-02-26T07:30:27;14.60;99.90
10344;DHT22;5217;43.960;10.954;2023-02-26T07:32:57;14.60;99.90
10344;DHT22;5217;43.960;10.954;2023-02-26T07:35:27;14.60;99.90
10344;DHT22;5217;43.960;10.954;2023-02-26T07:37:59;14.60;99.90
10344;DHT22;5217;43.960;10.954;2023-02-26T07:40:29;14.50;99.90
10344;DHT22;5217;43.960;10.954;2023-02-26T07:42:59;14.50;99.90
10344;DHT22;5217;43.960;10.954;2023-02-26T07:45:29;14.50;99.90
10344;DHT22;5217;43.960;10.954;2023-02-26T07:47:58;14.50;99.90
10344;DHT22;5217;43.960;10.954;2023-02-26T07:50:28;14.40;99.90
10344;DHT22;5217;43.960;10.954;2023-02-26T07:53:00;14.40;99.90
10344;DHT22;5217;43.960;10.954;2023-02-26T07:55:30;14.40;99.90
10344;DHT22;5217;43.960;10.954;2023-02-26T07:57:59;14.40;99.90
10344;DHT22;5217;43.960;10.954;2023-02-26T08:00:28;14.30;99.90
10344;DHT22;5217;43.960;10.954;2023-02-26T08:02:57;14.30;99.90
10344;DHT22;5217;43.960;10.954;2023-02-26T08:05:27;14.40;99.90
10344;DHT22;5217;43.960;10.954;2023-02-26T08:07:57;14.40;99.90
10344;DHT22;5217;43.960;10.954;2023-02-26T08:10:29;14.30;99.90
10344;DHT22;5217;43.960;10.954;2023-02-26T08:12:59;14.30;99.90
10344;DHT22;5217;43.960;10.954;2023-02-26T08:15:28;14.30;99.90
10344;DHT22;5217;43.960;10.954;2023-02-26T08:17:57;14.30;99.90
10344;DHT22;5217;43.960;10.954;2023-02-26T08:20:27;14.30;99.90
10344;DHT22;5217;43.960;10.954;2023-02-26T08:22:55;14.20;99.90
10344;DHT22;5217;43.960;10.954;2023-02-26T08:25:26;14.20;99.90
10344;DHT22;5217;43.960;10.954;2023-02-26T08:27:57;14.30;99.90
10344;DHT22;5217;43.960;10.954;2023-02-26T08:30:28;14.20;99.90
10344;DHT22;5217;43.960;10.954;2023-02-26T08:32:58;14.20;99.90
10344;DHT22;5217;43.960;10.954;2023-02-26T08:35:28;14.20;99.90
10344;DHT22;5217;43.960;10.954;2023-02-26T08:37:58;14.20;99.90
10344;DHT22;5217;43.960;10.954;2023-02-26T08:40:28;14.20;99.90
10344;DHT22;5217;43.960;10.954;2023-02-26T08:42:59;14.10;99.90
10344;DHT22;5217;43.960;10.954;2023-02-26T08:45:29;14.10;99.90
10344;DHT22;5217;43.960;10.954;2023-02-26T08:48:00;14.10;99.90
10344;DHT22;5217;43.960;10.954;2023-02-26T08:50:30;14.10;99.90
10344;DHT22;5217;43.960;10.954;2023-02-26T08:53:01;14.10;99.90
10344;DHT22;5217;43.960;10.954;2023-02-26T08:55:30;14.10;99.90
10344;DHT22;5217;43.960;10.954;2023-02-26T08:58:01;14.10;99.90
10344;DHT22;5217;43.960;10.954;2023-02-26T09:00:30;14.00;99.90
10344;DHT22;5217;43.960;10.954;2023-02-26T09:03:01;14.00;99.90
10344;DHT22;5217;43.960;10.954;2023-02-26T09:05:31;14.00;99.90
10344;DHT22;5217;43.960;10.954;2023-02-26T09:08:00;14.00;99.90
10344;DHT22;5217;43.960;10.954;2023-02-26T09:10:30;14.00;99.90
10344;DHT22;5217;43.960;10.954;2023-02-26T09:13:01;14.00;99.90
10344;DHT22;5217;43.960;10.954;2023-02-26T09:15:30;13.90;99.90
10344;DHT22;5217;43.960;10.954;2023-02-26T09:18:00;13.90;99.90
10344;DHT22;5217;43.960;10.954;2023-02-26T09:20:30;13.90;99.90
10344;DHT22;5217;43.960;10.954;2023-02-26T09:22:59;13.90;99.90
10344;DHT22;5217;43.960;10.954;2023-02-26T09:25:27;13.90;99.90
10344;DHT22;5217;43.960;10.954;2023-02-26T09:27:56;13.90;99.90
10344;DHT22;5217;43.960;10.954;2023-02-26T09:30:27;13.90;99.90
10344;DHT22;5217;43.960;10.954;2023-02-26T09:32:57;13.90;99.90
10344;DHT22;5217;43.960;10.954;2023-02-26T09:35:26;13.90;99.90
10344;DHT22;5217;43.960;10.954;2023-02-26T09:37:56;13.90;99.90
10344;DHT22;5217;43.960;10.954;2023-02-26T09:40:34;13.80;99.70
10344;DHT22;5217;43.960;10.954;2023-02-26T09:43:27;13.80;99.70
10344;DHT22;5217;43.960;10.954;2023-02-26T09:46:02;13.80;99.90
10344;DHT22;5217;43.960;10.954;2023-02-26T09:48:32;13.80;99.80
10344;DHT22;5217;43.960;10.954;2023-02-26T09:51:02;13.80;99.80
10344;DHT22;5217;43.960;10.954;2023-02-26T09:53:33;13.70;99.80
10344;DHT22;5217;43.960;10.954;2023-02-26T09:56:12;13.70;99.60
10344;DHT22;5217;43.960;10.954;2023-02-26T09:58:43;13.80;99.70
10344;DHT22;5217;43.960;10.954;2023-02-26T10:01:19;13.80;99.80
10344;DHT22;5217;43.960;10.954;2023-02-26T10:03:58;13.80;99.90
10344;DHT22;5217;43.960;10.954;2023-02-26T10:06:31;13.70;99.90
10344;DHT22;5217;43.960;10.954;2023-02-26T10:09:22;13.80;99.80
10344;DHT22;5217;43.960;10.954;2023-02-26T10:11:56;13.70;99.70
10344;DHT22;5217;43.960;10.954;2023-02-26T10:14:32;13.70;99.90
10344;DHT22;5217;43.960;10.954;2023-02-26T10:17:10;13.70;99.60
10344;DHT22;5217;43.960;10.954;2023-02-26T10:19:43;13.70;99.60
10344;DHT22;5217;43.960;10.954;2023-02-26T10:22:19;13.60;99.50
10344;DHT22;5217;43.960;10.954;2023-02-26T10:24:54;13.70;99.60
10344;DHT22;5217;43.960;10.954;2023-02-26T10:27:39;13.60;99.50
10344;DHT22;5217;43.960;10.954;2023-02-26T10:30:13;13.60;99.60
10344;DHT22;5217;43.960;10.954;2023-02-26T10:32:54;13.60;99.50
10344;DHT22;5217;43.960;10.954;2023-02-26T10:35:28;13.50;99.50
10344;DHT22;5217;43.960;10.954;2023-02-26T10:38:00;13.60;99.90
10344;DHT22;5217;43.960;10.954;2023-02-26T10:40:35;13.60;99.50
10344;DHT22;5217;43.960;10.954;2023-02-26T10:43:10;13.60;99.40
10344;DHT22;5217;43.960;10.954;2023-02-26T10:45:46;13.50;99.10
10344;DHT22;5217;43.960;10.954;2023-02-26T10:48:28;13.50;99.00
10344;DHT22;5217;43.960;10.954;2023-02-26T10:51:11;13.40;99.00
10344;DHT22;5217;43.960;10.954;2023-02-26T10:53:44;13.50;98.70
10344;DHT22;5217;43.960;10.954;2023-02-26T10:56:17;13.40;98.60
10344;DHT22;5217;43.960;10.954;2023-02-26T10:58:47;13.40;98.70
10344;DHT22;5217;43.960;10.954;2023-02-26T11:01:17;13.40;98.70
10344;DHT22;5217;43.960;10.954;2023-02-26T11:03:50;13.40;98.80
10344;DHT22;5217;43.960;10.954;2023-02-26T11:06:23;13.40;98.80
10344;DHT22;5217;43.960;10.954;2023-02-26T11:08:56;13.30;98.50
10344;DHT22;5217;43.960;10.954;2023-02-26T11:11:39;13.30;98.60
10344;DHT22;5217;43.960;10.954;2023-02-26T11:14:09;13.30;98.70
10344;DHT22;5217;43.960;10.954;2023-02-26T11:16:45;13.30;98.60
10344;DHT22;5217;43.960;10.954;2023-02-26T11:19:16;13.20;98.60
10344;DHT22;5217;43.960;10.954;2023-02-26T11:21:50;13.20;98.40
10344;DHT22;5217;43.960;10.954;2023-02-26T11:24:25;13.20;98.10
10344;DHT22;5217;43.960;10.954;2023-02-26T11:26:57;13.20;98.00
10344;DHT22;5217;43.960;10.954;2023-02-26T11:29:34;13.20;97.90
10344;DHT22;5217;43.960;10.954;2023-02-26T11:32:05;13.10;97.80
10344;DHT22;5217;43.960;10.954;2023-02-26T11:34:35;13.10;97.80
10344;DHT22;5217;43.960;10.954;2023-02-26T11:37:04;13.10;97.50
10344;DHT22;5217;43.960;10.954;2023-02-26T11:39:34;13.10;97.50
10344;DHT22;5217;43.960;10.954;2023-02-26T11:42:06;13.10;97.60
10344;DHT22;5217;43.960;10.954;2023-02-26T11:44:37;13.10;97.60
10344;DHT22;5217;43.960;10.954;2023-02-26T11:47:14;13.10;97.70
10344;DHT22;5217;43.960;10.954;2023-02-26T11:49:49;13.10;97.60
10344;DHT22;5217;43.960;10.954;2023-02-26T11:52:27;13.10;97.50
10344;DHT22;5217;43.960;10.954;2023-02-26T11:55:01;13.00;97.40
10344;DHT22;5217;43.960;10.954;2023-02-26T11:57:31;13.00;97.30
10344;DHT22;5217;43.960;10.954;2023-02-26T12:00:02;13.00;97.20
10344;DHT22;5217;43.960;10.954;2023-02-26T12:02:43;13.00;97.20
10344;DHT22;5217;43.960;10.954;2023-02-26T12:05:16;13.00;97.10
10344;DHT22;5217;43.960;10.954;2023-02-26T12:07:44;13.00;97.10
10344;DHT22;5217;43.960;10.954;2023-02-26T12:10:17;13.00;96.90
10344;DHT22;5217;43.960;10.954;2023-02-26T12:13:01;13.00;97.00
10344;DHT22;5217;43.960;10.954;2023-02-26T12:15:36;13.00;97.00
10344;DHT22;5217;43.960;10.954;2023-02-26T12:18:29;13.00;97.00
10344;DHT22;5217;43.960;10.954;2023-02-26T12:21:16;13.00;97.10
10344;DHT22;5217;43.960;10.954;2023-02-26T12:24:13;13.00;97.10
10344;DHT22;5217;43.960;10.954;2023-02-26T12:26:49;13.00;96.90
10344;DHT22;5217;43.960;10.954;2023-02-26T12:32:44;12.90;96.60
10344;DHT22;5217;43.960;10.954;2023-02-26T12:35:30;12.90;96.80
10344;DHT22;5217;43.960;10.954;2023-02-26T12:38:18;12.90;96.90
10344;DHT22;5217;43.960;10.954;2023-02-26T12:41:14;12.90;96.90
10344;DHT22;5217;43.960;10.954;2023-02-26T12:43:48;12.90;96.90
10344;DHT22;5217;43.960;10.954;2023-02-26T12:46:29;12.90;96.90
10344;DHT22;5217;43.960;10.954;2023-02-26T12:49:38;12.90;96.90
10344;DHT22;5217;43.960;10.954;2023-02-26T12:52:31;12.90;97.00
10344;DHT22;5217;43.960;10.954;2023-02-26T12:55:17;12.90;97.00
10344;DHT22;5217;43.960;10.954;2023-02-26T12:58:23;12.90;97.20
10344;DHT22;5217;43.960;10.954;2023-02-26T13:01:44;12.80;97.70
10344;DHT22;5217;43.960;10.954;2023-02-26T13:04:48;12.80;97.30
10344;DHT22;5217;43.960;10.954;2023-02-26T13:10:23;12.80;97.20
10344;DHT22;5217;43.960;10.954;2023-02-26T13:13:06;12.80;97.20
10344;DHT22;5217;43.960;10.954;2023-02-26T13:15:50;12.80;97.10
10344;DHT22;5217;43.960;10.954;2023-02-26T13:18:25;12.80;97.30
10344;DHT22;5217;43.960;10.954;2023-02-26T13:21:03;12.80;97.20
10344;DHT22;5217;43.960;10.954;2023-02-26T13:23:35;12.80;97.20
10344;DHT22;5217;43.960;10.954;2023-02-26T13:26:07;12.80;97.20
10344;DHT22;5217;43.960;10.954;2023-02-26T13:28:41;12.80;97.20
10344;DHT22;5217;43.960;10.954;2023-02-26T13:31:14;12.80;97.30
10344;DHT22;5217;43.960;10.954;2023-02-26T13:33:45;12.80;97.30
10344;DHT22;5217;43.960;10.954;2023-02-26T13:36:16;12.70;97.10
10344;DHT22;5217;43.960;10.954;2023-02-26T13:38:52;12.70;97.10
10344;DHT22;5217;43.960;10.954;2023-02-26T13:41:29;12.70;97.20
10344;DHT22;5217;43.960;10.954;2023-02-26T13:44:18;12.70;97.10
10344;DHT22;5217;43.960;10.954;2023-02-26T13:49:58;12.70;96.90
10344;DHT22;5217;43.960;10.954;2023-02-26T13:52:32;12.60;97.00
10344;DHT22;5217;43.960;10.954;2023-02-26T13:55:03;12.60;97.20
10344;DHT22;5217;43.960;10.954;2023-02-26T13:57:50;12.60;97.30
10344;DHT22;5217;43.960;10.954;2023-02-26T14:00:25;12.60;97.30
10344;DHT22;5217;43.960;10.954;2023-02-26T14:02:55;12.60;97.20
10344;DHT22;5217;43.960;10.954;2023-02-26T14:05:52;12.60;97.20
10344;DHT22;5217;43.960;10.954;2023-02-26T14:08:27;12.60;97.40
10344;DHT22;5217;43.960;10.954;2023-02-26T14:11:37;12.60;97.40
10344;DHT22;5217;43.960;10.954;2023-02-26T14:14:16;12.50;97.50
10344;DHT22;5217;43.960;10.954;2023-02-26T14:16:50;12.60;97.50
10344;DHT22;5217;43.960;10.954;2023-02-26T14:19:27;12.50;97.40
10344;DHT22;5217;43.960;10.954;2023-02-26T14:22:00;12.50;97.40
10344;DHT22;5217;43.960;10.954;2023-02-26T14:24:31;12.50;97.30
10344;DHT22;5217;43.960;10.954;2023-02-26T14:27:20;12.50;97.40
10344;DHT22;5217;43.960;10.954;2023-02-26T14:30:02;12.50;97.40
10344;DHT22;5217;43.960;10.954;2023-02-26T14:32:32;12.50;97.50
10344;DHT22;5217;43.960;10.954;2023-02-26T14:35:09;12.50;97.50
10344;DHT22;5217;43.960;10.954;2023-02-26T14:37:39;12.50;97.30
10344;DHT22;5217;43.960;10.954;2023-02-26T14:40:12;12.50;97.30
10344;DHT22;5217;43.960;10.954;2023-02-26T14:42:44;12.40;97.20
10344;DHT22;5217;43.960;10.954;2023-02-26T14:45:28;12.50;97.30
10344;DHT22;5217;43.960;10.954;2023-02-26T14:47:57;12.50;97.20
10344;DHT22;5217;43.960;10.954;2023-02-26T14:50:35;12.50;97.30
10344;DHT22;5217;43.960;10.954;2023-02-26T14:53:25;12.40;97.20
10344;DHT22;5217;43.960;10.954;2023-02-26T14:56:05;12.40;97.30
10344;DHT22;5217;43.960;10.954;2023-02-26T14:58:45;12.40;97.30
10344;DHT22;5217;43.960;10.954;2023-02-26T15:01:30;12.40;97.20
10344;DHT22;5217;43.960;10.954;2023-02-26T15:04:22;12.40;97.20
10344;DHT22;5217;43.960;10.954;2023-02-26T15:07:14;12.40;97.20
10344;DHT22;5217;43.960;10.954;2023-02-26T15:10:01;12.40;97.30
10344;DHT22;5217;43.960;10.954;2023-02-26T15:12:41;12.40;97.00
10344;DHT22;5217;43.960;10.954;2023-02-26T15:15:33;12.40;97.10
10344;DHT22;5217;43.960;10.954;2023-02-26T15:18:27;12.30;97.20
10344;DHT22;5217;43.960;10.954;2023-02-26T15:21:06;12.30;97.10
10344;DHT22;5217;43.960;10.954;2023-02-26T15:23:39;12.30;97.20
10344;DHT22;5217;43.960;10.954;2023-02-26T15:26:16;12.30;97.30
10344;DHT22;5217;43.960;10.954;2023-02-26T15:28:46;12.30;97.40
10344;DHT22;5217;43.960;10.954;2023-02-26T15:31:17;12.30;97.40
10344;DHT22;5217;43.960;10.954;2023-02-26T15:33:48;12.30;97.40
10344;DHT22;5217;43.960;10.954;2023-02-26T15:36:18;12.30;97.50
10344;DHT22;5217;43.960;10.954;2023-02-26T15:38:54;12.30;97.30
10344;DHT22;5217;43.960;10.954;2023-02-26T15:41:24;12.30;97.30
10344;DHT22;5217;43.960;10.954;2023-02-26T15:43:56;12.20;97.20
10344;DHT22;5217;43.960;10.954;2023-02-26T15:46:29;12.20;97.30
10344;DHT22;5217;43.960;10.954;2023-02-26T15:49:03;12.20;97.20
10344;DHT22;5217;43.960;10.954;2023-02-26T15:51:33;12.20;97.30
10344;DHT22;5217;43.960;10.954;2023-02-26T15:54:02;12.20;97.00
10344;DHT22;5217;43.960;10.954;2023-02-26T15:56:33;12.20;97.10
10344;DHT22;5217;43.960;10.954;2023-02-26T15:59:05;12.20;97.10
10344;DHT22;5217;43.960;10.954;2023-02-26T16:01:34;12.20;96.80
10344;DHT22;5217;43.960;10.954;2023-02-26T16:04:11;12.10;96.70
10344;DHT22;5217;43.960;10.954;2023-02-26T16:06:42;12.10;96.90
10344;DHT22;5217;43.960;10.954;2023-02-26T16:09:15;12.10;97.00
10344;DHT22;5217;43.960;10.954;2023-02-26T16:11:45;12.10;97.10
10344;DHT22;5217;43.960;10.954;2023-02-26T16:14:17;12.10;96.90
10344;DHT22;5217;43.960;10.954;2023-02-26T16:16:50;12.20;96.90
10344;DHT22;5217;43.960;10.954;2023-02-26T16:19:26;12.20;96.70
10344;DHT22;5217;43.960;10.954;2023-02-26T16:21:56;12.20;96.60
10344;DHT22;5217;43.960;10.954;2023-02-26T16:24:27;12.20;96.50